Time;durP1;ratioP1;P1;durP2;ratioP2;P2;SDS_P1;SDS_P2;PMS_P1;PMS_P2;Temp;Humidity;BMP_temperature;BMP_pressure;BME280_temperature;BME280_humidity;BME280_pressure;Samples;Min_cycle;Max_cycle;Signal;HPM_P1;HPM_P2
2022/01/13 00:01:19;;;;;;;13.45;6.25;;;;;;;-0.68;62.53;101317.91;5050160;28;20025;-51
2022/01/13 00:03:45;;;;;;;12.98;6.60;;;;;;;-0.65;64.88;101327.31;5048839;28;20021;-51
2022/01/13 00:06:11;;;;;;;14.10;6.28;;;;;;;-0.63;63.42;101331.56;5050001;28;20025;-51
2022/01/13 00:08:36;;;;;;;12.50;6.22;;;;;;;-0.74;64.46;101330.50;5050343;28;20029;-52
2022/01/13 00:11:01;;;;;;;12.70;6.93;;;;;;;-0.96;66.28;101336.16;5050395;28;20017;-52
2022/01/13 00:13:33;;;;;;;12.60;6.53;;;;;;;-0.93;65.07;101322.91;5050219;28;20025;-52
2022/01/13 00:16:43;;;;;;;11.68;6.57;;;;;;;-1.07;65.86;101324.56;5050135;28;20043;-51
2022/01/13 00:18:52;;;;;;;13.30;6.25;;;;;;;-0.79;65.74;101336.84;5049785;28;20162;-51
2022/01/13 00:24:03;;;;;;;11.25;6.20;;;;;;;-0.98;64.15;101341.47;5049035;28;20087;-51
2022/01/13 00:26:31;;;;;;;12.80;6.63;;;;;;;-1.05;64.70;101343.63;5050140;28;20020;-53
2022/01/13 00:28:59;;;;;;;12.45;7.03;;;;;;;-1.03;64.82;101346.13;5050059;28;20053;-49
2022/01/13 00:31:28;;;;;;;14.65;7.25;;;;;;;-0.91;65.84;101347.19;5049992;28;20502;-50
2022/01/13 00:33:58;;;;;;;15.43;7.03;;;;;;;-0.99;64.14;101351.09;5049994;28;20156;-55
2022/01/13 00:36:28;;;;;;;14.88;7.43;;;;;;;-1.20;65.85;101355.78;5049942;28;20128;-51
2022/01/13 00:38:53;;;;;;;15.10;7.00;;;;;;;-1.14;66.21;101356.34;5048980;28;20061;-53
2022/01/13 00:41:19;;;;;;;14.18;6.72;;;;;;;-1.14;65.32;101358.97;5050318;28;20044;-52
2022/01/13 00:43:47;;;;;;;12.77;6.72;;;;;;;-1.24;66.06;101364.75;5048732;28;20083;-51
2022/01/13 00:46:19;;;;;;;14.25;6.50;;;;;;;-1.43;66.28;101374.53;5048884;28;20021;-50
2022/01/13 00:48:45;;;;;;;15.80;6.95;;;;;;;-1.54;68.16;101380.38;5049952;28;20044;-53
2022/01/13 00:51:11;;;;;;;12.50;6.47;;;;;;;-1.48;67.47;101387.84;5049986;28;20481;-52
2022/01/13 00:53:36;;;;;;;13.02;6.57;;;;;;;-1.36;66.85;101388.94;5049246;28;20040;-53
2022/01/13 00:56:02;;;;;;;16.38;7.35;;;;;;;-1.41;68.69;101385.72;5049385;28;20021;-53
2022/01/13 00:58:31;;;;;;;16.35;6.80;;;;;;;-1.20;70.35;101386.28;5049478;28;20025;-51
2022/01/13 01:00:57;;;;;;;16.48;6.95;;;;;;;-1.26;69.76;101378.81;5049809;28;20026;-50
2022/01/13 01:03:23;;;;;;;14.80;7.00;;;;;;;-1.61;69.51;101381.63;5049621;28;20025;-50
2022/01/13 01:05:48;;;;;;;13.77;6.57;;;;;;;-1.40;71.72;101390.88;5049604;28;20025;-53
2022/01/13 01:08:14;;;;;;;16.58;7.30;;;;;;;-1.34;69.85;101389.69;5048189;28;20076;-49
2022/01/13 01:10:39;;;;;;;14.15;6.35;;;;;;;-1.54;70.61;101388.19;5052714;28;20032;-48
2022/01/13 01:13:18;;;;;;;16.40;7.28;;;;;;;-1.67;70.98;101389.81;5053317;28;20104;-48
2022/01/13 01:15:48;;;;;;;12.80;6.43;;;;;;;-1.86;69.86;101385.59;5053420;28;20021;-52
2022/01/13 01:23:35;;;;;;;12.20;6.65;;;;;;;-1.70;70.38;101390.78;5061735;28;20064;-53
2022/01/13 01:26:09;;;;;;;12.60;6.88;;;;;;;-1.73;71.80;101393.59;5053308;28;20044;-51
2022/01/13 01:28:45;;;;;;;14.45;6.38;;;;;;;-1.68;71.36;101402.00;5053537;28;20035;-50
2022/01/13 01:31:12;;;;;;;14.88;6.88;;;;;;;-1.54;72.12;101395.16;5053709;28;20099;-49
2022/01/13 01:33:41;;;;;;;14.65;6.80;;;;;;;-1.60;72.17;101406.78;5053735;28;20021;-52
2022/01/13 01:36:12;;;;;;;14.10;6.50;;;;;;;-1.59;70.12;101414.56;5053554;28;20528;-51
2022/01/13 01:38:38;;;;;;;14.80;6.60;;;;;;;-1.70;70.43;101411.69;5053360;28;20044;-51
2022/01/13 01:41:03;;;;;;;12.20;6.38;;;;;;;-1.64;70.65;101413.97;5053263;28;20044;-50
2022/01/13 01:43:29;;;;;;;11.85;6.40;;;;;;;-1.78;71.01;101412.09;5053369;28;20028;-53
2022/01/13 01:45:54;;;;;;;14.70;6.50;;;;;;;-1.41;72.25;101411.84;5053454;28;20025;-51
2022/01/13 01:48:20;;;;;;;13.68;7.00;;;;;;;-1.35;71.18;101413.28;5053258;28;20030;-49
2022/01/13 01:50:54;;;;;;;13.43;6.65;;;;;;;-1.52;72.23;101414.19;5053799;28;20044;-52
2022/01/13 01:53:21;;;;;;;11.35;6.13;;;;;;;-1.39;70.38;101412.59;5053186;28;20032;-52
2022/01/13 01:55:46;;;;;;;15.43;6.85;;;;;;;-1.49;70.26;101409.66;5053269;28;20110;-52
2022/01/13 01:58:12;;;;;;;12.27;6.18;;;;;;;-1.79;70.95;101407.81;5053130;28;20033;-51
2022/01/13 02:00:37;;;;;;;12.88;6.63;;;;;;;-1.81;72.32;101399.22;5051637;28;20025;-50
2022/01/13 02:03:03;;;;;;;14.95;6.80;;;;;;;-1.77;71.42;101402.53;5052738;28;20475;-50
2022/01/13 02:05:29;;;;;;;10.98;6.20;;;;;;;-1.91;71.28;101397.19;5051847;28;20017;-52
2022/01/13 02:07:54;;;;;;;14.00;6.63;;;;;;;-1.81;71.27;101400.97;5051558;28;20076;-51
2022/01/13 02:10:20;;;;;;;11.32;6.10;;;;;;;-1.91;71.76;101402.41;5052725;28;20083;-50
2022/01/13 02:12:49;;;;;;;14.18;6.78;;;;;;;-1.82;71.35;101396.69;5052712;28;20685;-51
2022/01/13 02:15:33;;;;;;;15.83;6.63;;;;;;;-1.77;72.33;101394.69;5053261;28;20032;-51
2022/01/13 02:17:59;;;;;;;14.68;6.55;;;;;;;-1.89;71.63;101398.78;5053092;28;20021;-51
2022/01/13 02:20:25;;;;;;;13.88;6.43;;;;;;;-2.22;72.18;101409.25;5051806;28;20025;-54
2022/01/13 02:22:50;;;;;;;12.23;5.95;;;;;;;-2.09;72.66;101388.59;5051654;28;20393;-51
2022/01/13 02:25:16;;;;;;;15.85;7.35;;;;;;;-1.90;72.30;101397.13;5052907;28;20056;-52
2022/01/13 02:27:42;;;;;;;11.27;6.15;;;;;;;-1.69;71.20;101410.78;5052643;28;20025;-52
2022/01/13 02:30:08;;;;;;;13.68;7.03;;;;;;;-2.06;72.42;101402.28;5052980;28;20028;-51
2022/01/13 02:32:34;;;;;;;13.55;6.25;;;;;;;-2.22;74.35;101398.81;5052674;28;20094;-50
2022/01/13 02:34:59;;;;;;;12.75;6.68;;;;;;;-2.19;73.42;101393.44;5052499;28;20021;-50
2022/01/13 02:37:25;;;;;;;14.20;6.82;;;;;;;-2.09;72.29;101380.75;5052538;28;20403;-51
2022/01/13 02:39:50;;;;;;;15.05;6.78;;;;;;;-2.14;73.40;101395.81;5052526;28;20013;-50
2022/01/13 02:42:16;;;;;;;13.73;6.72;;;;;;;-2.16;74.58;101394.09;5052542;28;20413;-51
2022/01/13 02:45:00;;;;;;;12.95;6.43;;;;;;;-2.08;74.85;101388.50;5052492;28;20366;-49
2022/01/13 02:50:11;;;;;;;13.98;6.78;;;;;;;-2.12;74.07;101384.34;5052397;28;20033;-51
2022/01/13 02:52:36;;;;;;;16.45;7.30;;;;;;;-2.14;74.29;101381.00;5051986;28;20044;-51
2022/01/13 02:55:03;;;;;;;15.73;7.63;;;;;;;-2.05;73.56;101387.50;5050773;28;20021;-51
2022/01/13 02:57:28;;;;;;;16.45;7.80;;;;;;;-2.00;74.35;101386.34;5052162;28;20037;-49
2022/01/13 02:59:54;;;;;;;14.52;7.03;;;;;;;-2.14;73.96;101381.00;5051892;28;20088;-48
2022/01/13 03:02:19;;;;;;;14.63;7.03;;;;;;;-2.04;72.58;101386.56;5051886;28;20457;-50
2022/01/13 03:04:48;;;;;;;14.02;6.72;;;;;;;-2.20;72.03;101378.72;5052021;28;20025;-50
2022/01/13 03:07:13;;;;;;;14.48;6.75;;;;;;;-2.20;73.44;101387.38;5051639;28;20391;-49
2022/01/13 03:09:39;;;;;;;14.05;6.75;;;;;;;-1.95;72.90;101377.41;5051731;28;20100;-49
2022/01/13 03:12:05;;;;;;;18.27;7.28;;;;;;;-2.14;72.44;101375.78;5051910;28;20437;-49
2022/01/13 03:14:30;;;;;;;15.63;6.80;;;;;;;-2.03;73.35;101375.22;5051876;28;20079;-49
2022/01/13 03:16:55;;;;;;;14.85;7.50;;;;;;;-1.97;74.72;101375.72;5051543;28;20021;-50
2022/01/13 03:19:22;;;;;;;19.17;7.95;;;;;;;-2.14;72.63;101375.78;5051573;28;20029;-48
2022/01/13 03:21:47;;;;;;;17.73;7.35;;;;;;;-2.08;73.86;101372.00;5051493;28;20031;-50
2022/01/13 03:24:13;;;;;;;18.13;8.00;;;;;;;-2.04;73.20;101368.28;5051244;28;20025;-49
2022/01/13 03:26:39;;;;;;;17.38;7.70;;;;;;;-2.04;73.77;101370.91;5051230;28;20013;-49
2022/01/13 03:31:36;;;;;;;17.50;7.72;;;;;;;-1.93;72.65;101367.72;5051035;28;20048;-50
2022/01/13 03:34:01;;;;;;;15.77;6.72;;;;;;;-2.11;70.92;101373.00;5051532;28;20021;-50
2022/01/13 03:36:27;;;;;;;14.55;7.22;;;;;;;-2.31;73.06;101375.81;5051124;28;20130;-49
2022/01/13 03:38:53;;;;;;;16.88;7.55;;;;;;;-2.25;72.42;101370.28;5051003;28;20032;-49
2022/01/13 03:41:19;;;;;;;15.60;7.35;;;;;;;-2.15;73.51;101381.94;5051076;28;20112;-49
2022/01/13 03:43:45;;;;;;;17.05;8.40;;;;;;;-2.25;73.94;101376.34;5050848;28;20039;-49
2022/01/13 03:46:11;;;;;;;17.33;7.53;;;;;;;-2.24;72.03;101380.63;5051113;28;20032;-49
2022/01/13 03:48:36;;;;;;;14.90;7.28;;;;;;;-2.13;72.01;101372.25;5051039;28;20025;-48
2022/01/13 03:51:02;;;;;;;13.88;6.60;;;;;;;-2.25;72.84;101370.28;5050615;28;20111;-49
2022/01/13 03:53:27;;;;;;;16.90;7.68;;;;;;;-2.33;73.72;101375.06;5050542;28;20028;-48
2022/01/13 03:56:14;;;;;;;16.70;7.55;;;;;;;-2.51;73.57;101367.28;5050393;28;20468;-49
2022/01/13 03:58:54;;;;;;;17.35;7.25;;;;;;;-2.46;71.86;101369.66;5051380;28;20028;-51
2022/01/13 04:01:46;;;;;;;18.40;8.18;;;;;;;-2.59;71.89;101369.44;5050706;28;20032;-50
2022/01/13 04:04:11;;;;;;;18.55;8.23;;;;;;;-2.40;71.81;101375.41;5051022;28;20045;-50
2022/01/13 04:06:39;;;;;;;17.10;8.40;;;;;;;-2.38;71.07;101380.50;5050725;28;20142;-50
2022/01/13 04:09:09;;;;;;;17.77;8.57;;;;;;;-2.64;72.67;101380.09;5050580;28;20401;-53
2022/01/13 04:11:34;;;;;;;18.73;8.80;;;;;;;-2.57;72.28;101383.22;5050566;28;20033;-50
2022/01/13 04:14:02;;;;;;;20.05;9.45;;;;;;;-2.54;72.87;101379.63;5050949;28;20036;-51
2022/01/13 04:16:33;;;;;;;16.67;8.10;;;;;;;-2.46;73.42;101388.72;5050824;28;20017;-51
2022/01/13 04:19:04;;;;;;;18.02;8.52;;;;;;;-2.26;71.92;101400.75;5050549;28;20099;-51
2022/01/13 04:21:33;;;;;;;17.20;8.57;;;;;;;-2.36;70.01;101407.38;5050444;28;20045;-49
2022/01/13 04:23:59;;;;;;;15.77;7.60;;;;;;;-2.42;71.51;101408.53;5050830;28;20021;-49
2022/01/13 04:26:29;;;;;;;23.38;10.48;;;;;;;-2.42;71.15;101416.34;5051204;28;20033;-50
2022/01/13 04:31:31;;;;;;;40.22;17.23;;;;;;;-1.79;74.67;101423.47;5050740;28;20162;-52
2022/01/13 04:33:57;;;;;;;124.55;42.95;;;;;;;-1.84;68.82;101414.22;5050655;28;20025;-50
2022/01/13 04:36:22;;;;;;;21.80;10.05;;;;;;;-2.20;69.53;101426.50;5050440;28;20373;-50
2022/01/13 04:38:48;;;;;;;21.60;9.02;;;;;;;-2.36;69.52;101423.84;5050557;28;20102;-51
2022/01/13 04:41:22;;;;;;;18.38;8.95;;;;;;;-2.36;69.25;101423.84;5050130;28;20028;-52
2022/01/13 04:43:47;;;;;;;18.23;8.88;;;;;;;-2.54;70.18;101422.19;5049870;28;20032;-52
2022/01/13 04:46:13;;;;;;;18.60;8.95;;;;;;;-2.39;68.94;101420.56;5053400;28;20029;-50
2022/01/13 04:48:38;;;;;;;19.50;9.40;;;;;;;-2.59;70.06;101416.34;5053013;28;20028;-51
2022/01/13 04:51:04;;;;;;;21.60;8.15;;;;;;;-2.85;73.28;101425.50;5053070;28;20020;-52
2022/01/13 04:53:29;;;;;;;19.27;8.55;;;;;;;-2.94;74.10;101424.19;5053220;28;20040;-51
2022/01/13 04:55:58;;;;;;;18.77;9.02;;;;;;;-2.87;73.13;101424.72;5053861;28;20024;-50
2022/01/13 04:58:23;;;;;;;20.05;9.20;;;;;;;-2.66;72.74;101423.66;5052851;28;20019;-52
2022/01/13 05:00:49;;;;;;;21.70;9.50;;;;;;;-2.69;72.22;101436.00;5053818;28;20013;-52
2022/01/13 05:03:15;;;;;;;21.05;9.60;;;;;;;-2.74;71.90;101438.84;5054234;28;20106;-52
2022/01/13 05:05:40;;;;;;;20.08;8.98;;;;;;;-2.86;71.98;101449.84;5052586;28;20025;-51
2022/01/13 05:08:05;;;;;;;29.58;12.90;;;;;;;-2.76;72.62;101436.31;5053136;28;20129;-53
2022/01/13 05:10:31;;;;;;;27.92;12.13;;;;;;;-2.71;72.17;101437.84;5053468;28;20029;-52
2022/01/13 05:12:57;;;;;;;25.00;11.60;;;;;;;-2.81;73.01;101443.50;5053562;28;20028;-50
2022/01/13 05:15:26;;;;;;;24.00;11.35;;;;;;;-2.76;73.30;101438.91;5053815;28;20025;-53
2022/01/13 05:20:23;;;;;;;23.05;11.38;;;;;;;-3.26;73.92;101429.16;5053426;28;20021;-52
2022/01/13 05:22:49;;;;;;;26.35;11.88;;;;;;;-3.16;73.82;101445.19;5053610;28;20025;-50
2022/01/13 05:25:16;;;;;;;24.42;10.52;;;;;;;-3.03;73.21;101448.06;5053987;28;20040;-51
2022/01/13 05:27:41;;;;;;;25.23;11.30;;;;;;;-2.95;73.17;101452.00;5053324;28;20028;-51
2022/01/13 05:30:07;;;;;;;27.80;10.77;;;;;;;-2.99;73.70;101447.84;5052124;28;20337;-52
2022/01/13 05:32:33;;;;;;;27.92;11.35;;;;;;;-3.09;73.05;101454.41;5053230;28;20104;-52
2022/01/13 05:34:58;;;;;;;28.23;11.90;;;;;;;-3.24;74.08;101452.53;5052977;28;20461;-50
2022/01/13 05:37:24;;;;;;;28.27;13.23;;;;;;;-3.15;74.41;101447.72;5053409;28;20102;-49
2022/01/13 05:39:49;;;;;;;33.55;13.60;;;;;;;-2.98;73.81;101454.75;5053407;28;20388;-48
2022/01/13 05:42:15;;;;;;;27.33;11.95;;;;;;;-3.32;75.94;101457.28;5052812;28;20020;-50
2022/01/13 05:44:40;;;;;;;25.63;12.55;;;;;;;-3.35;76.19;101461.72;5052953;28;20025;-51
2022/01/13 05:47:07;;;;;;;27.13;11.52;;;;;;;-3.32;75.52;101457.28;5052892;28;20075;-49
2022/01/13 05:49:32;;;;;;;34.97;12.73;;;;;;;-3.44;75.87;101454.31;5051477;28;20028;-51
2022/01/13 05:51:58;;;;;;;30.02;13.23;;;;;;;-3.60;75.32;101464.63;5052350;28;20405;-53
2022/01/13 05:54:23;;;;;;;22.65;10.35;;;;;;;-3.39;75.46;101467.97;5052696;28;20110;-50
2022/01/13 05:56:48;;;;;;;22.85;11.85;;;;;;;-3.25;73.74;101475.13;5051398;28;20074;-51
2022/01/13 05:59:14;;;;;;;24.58;11.57;;;;;;;-3.31;74.16;101478.03;5052585;28;20033;-50
2022/01/13 06:01:39;;;;;;;24.25;11.75;;;;;;;-3.51;75.48;101478.13;5051748;28;20025;-49
2022/01/13 06:04:05;;;;;;;27.23;12.23;;;;;;;-3.60;76.51;101479.38;5052565;28;20082;-48
2022/01/13 06:06:30;;;;;;;21.90;10.48;;;;;;;-3.45;76.40;101480.44;5052746;28;20049;-50
2022/01/13 06:08:56;;;;;;;23.63;10.98;;;;;;;-3.39;75.98;101483.59;5051374;28;20029;-51
2022/01/13 06:11:23;;;;;;;25.02;11.77;;;;;;;-3.03;74.70;101484.53;5052927;28;20032;-50
2022/01/13 06:13:48;;;;;;;21.92;10.90;;;;;;;-2.98;75.73;101482.56;5051728;28;20032;-50
2022/01/13 06:16:15;;;;;;;25.52;11.25;;;;;;;-2.87;74.94;101485.50;5051834;28;20032;-49
2022/01/13 06:18:40;;;;;;;24.90;11.23;;;;;;;-2.90;74.40;101495.22;5051765;28;20021;-52
2022/01/13 06:21:06;;;;;;;28.92;12.52;;;;;;;-2.66;73.42;101493.19;5051806;28;20448;-50
2022/01/13 06:23:31;;;;;;;25.35;11.73;;;;;;;-2.52;73.69;101497.72;5051376;28;20123;-53
2022/01/13 06:25:57;;;;;;;28.38;11.90;;;;;;;-2.38;73.47;101498.72;5051316;28;20025;-50
2022/01/13 06:28:23;;;;;;;26.45;12.43;;;;;;;-2.09;72.03;101499.00;5051305;28;20449;-51
2022/01/13 06:30:49;;;;;;;29.15;13.13;;;;;;;-1.92;71.80;101497.28;5051110;28;20075;-53
2022/01/13 06:33:15;;;;;;;32.08;12.65;;;;;;;-1.81;69.79;101502.78;5047272;28;20025;-50
2022/01/13 06:35:40;;;;;;;24.02;10.55;;;;;;;-1.64;68.63;101497.53;5042066;28;20171;-51
2022/01/13 06:38:06;;;;;;;23.98;9.88;;;;;;;-1.19;67.12;101500.31;5049836;28;20370;-51
2022/01/13 06:40:31;;;;;;;22.13;9.32;;;;;;;-0.26;82.57;101514.25;5051231;28;20516;-49
2022/01/13 06:42:57;;;;;;;21.45;9.45;;;;;;;0.56;72.66;101518.03;5049614;28;20020;-50
2022/01/13 06:45:22;;;;;;;22.42;9.88;;;;;;;0.91;71.59;101513.19;5051290;28;20451;-53
2022/01/13 06:47:48;;;;;;;24.85;10.40;;;;;;;1.29;59.32;101509.03;5051101;28;20024;-49
2022/01/13 06:50:13;;;;;;;18.92;9.30;;;;;;;1.02;58.89;101509.88;5051019;28;20025;-49
2022/01/13 06:52:39;;;;;;;18.88;9.20;;;;;;;0.51;60.37;101507.81;5051125;28;20021;-50
2022/01/13 06:55:05;;;;;;;19.15;8.80;;;;;;;0.57;60.20;101510.09;5050956;28;20075;-53
2022/01/13 06:57:31;;;;;;;15.82;8.65;;;;;;;0.66;60.12;101518.28;5050902;28;20079;-51
2022/01/13 06:59:56;;;;;;;17.35;8.38;;;;;;;0.82;58.39;101507.69;5050964;28;20017;-51
2022/01/13 07:02:23;;;;;;;18.83;8.65;;;;;;;0.97;57.34;101522.44;5050950;28;20066;-53
2022/01/13 07:04:49;;;;;;;18.95;8.50;;;;;;;1.03;56.90;101515.97;5050779;28;20028;-50
2022/01/13 07:07:14;;;;;;;16.98;8.80;;;;;;;1.02;56.27;101528.22;5049943;28;20052;-52
2022/01/13 07:09:40;;;;;;;18.27;8.48;;;;;;;1.06;57.04;101521.84;5048892;28;20024;-51
2022/01/13 07:12:08;;;;;;;21.23;8.68;;;;;;;1.47;54.96;101517.50;5050478;28;20021;-51
2022/01/13 07:14:34;;;;;;;17.73;8.23;;;;;;;1.62;55.17;101528.75;5050573;28;20021;-52
2022/01/13 07:16:59;;;;;;;22.15;9.00;;;;;;;1.78;53.95;101529.41;5050477;28;20092;-52
2022/01/13 07:19:25;;;;;;;24.25;9.13;;;;;;;2.12;53.25;101537.66;5050416;28;20461;-51
2022/01/13 07:21:50;;;;;;;18.10;7.85;;;;;;;1.98;54.16;101532.47;5050224;28;20037;-52
2022/01/13 07:24:16;;;;;;;20.52;9.93;;;;;;;2.02;53.65;101537.44;5050500;28;20025;-50
2022/01/13 07:26:41;;;;;;;22.05;10.98;;;;;;;1.92;55.95;101542.47;5050672;28;20064;-53
2022/01/13 07:29:07;;;;;;;20.38;9.70;;;;;;;1.10;57.02;101539.06;5050405;28;20025;-50
2022/01/13 07:31:34;;;;;;;25.25;12.40;;;;;;;1.40;56.53;101540.66;5050648;28;20420;-51
2022/01/13 07:34:00;;;;;;;20.05;11.10;;;;;;;1.78;54.09;101544.34;5050163;28;20036;-53
2022/01/13 07:36:25;;;;;;;19.98;9.13;;;;;;;2.00;53.83;101538.47;5050205;28;20024;-50
2022/01/13 07:38:51;;;;;;;17.15;7.72;;;;;;;2.44;53.71;101526.72;5050347;28;20047;-54
2022/01/13 07:41:16;;;;;;;16.77;8.45;;;;;;;2.53;52.70;101540.03;5050358;28;20036;-52
2022/01/13 07:43:47;;;;;;;14.73;8.10;;;;;;;3.06;51.94;101531.88;5049666;28;20082;-53
2022/01/13 07:46:13;;;;;;;15.35;8.02;;;;;;;2.55;51.84;101545.16;5050231;28;20029;-53
2022/01/13 07:48:38;;;;;;;14.10;7.57;;;;;;;2.86;50.60;101535.97;5048814;28;20090;-51
2022/01/13 07:51:04;;;;;;;15.48;7.95;;;;;;;2.90;51.58;101532.16;5049440;28;20036;-53
2022/01/13 07:53:29;;;;;;;13.65;7.35;;;;;;;2.90;50.42;101532.16;5049172;28;20094;-52
2022/01/13 07:55:55;;;;;;;30.98;14.32;;;;;;;2.94;50.30;101538.88;5049242;28;20037;-53
2022/01/13 07:58:20;;;;;;;18.02;10.40;;;;;;;2.93;50.34;101539.00;5049570;28;20112;-53
2022/01/13 08:00:46;;;;;;;15.82;8.55;;;;;;;2.93;50.21;101542.47;5049513;28;20035;-53
2022/01/13 08:03:11;;;;;;;12.65;7.63;;;;;;;3.41;48.52;101540.78;5049573;28;20027;-53
2022/01/13 08:05:37;;;;;;;16.08;8.00;;;;;;;3.26;49.13;101545.41;5049718;28;20044;-54
2022/01/13 08:08:02;;;;;;;33.55;15.27;;;;;;;3.38;49.37;101552.41;5048722;28;20107;-54
2022/01/13 08:10:28;;;;;;;16.85;9.55;;;;;;;3.29;48.91;101553.06;5048313;28;20073;-54
2022/01/13 08:12:53;;;;;;;15.55;8.35;;;;;;;3.11;48.44;101544.72;5049193;28;20029;-39
2022/01/13 08:15:19;;;;;;;13.32;7.07;;;;;;;2.80;49.79;101559.22;5048659;28;20098;-40
2022/01/13 08:20:30;;;;;;;13.48;7.70;;;;;;;3.24;47.95;101542.06;5053006;28;20128;-44
2022/01/13 08:22:56;;;;;;;15.90;7.75;;;;;;;3.20;48.55;101533.53;5053975;28;20049;-44
2022/01/13 08:25:22;;;;;;;18.17;8.07;;;;;;;3.32;48.43;101537.06;5053755;28;20418;-43
2022/01/13 08:27:48;;;;;;;13.15;7.07;;;;;;;3.14;49.27;101526.06;5052059;28;20032;-41
2022/01/13 08:30:13;;;;;;;13.18;7.32;;;;;;;2.83;49.43;101516.94;5054204;28;20029;-43
2022/01/13 08:32:39;;;;;;;13.85;7.85;;;;;;;3.33;48.59;101515.91;5053207;28;20021;-45
2022/01/13 08:35:05;;;;;;;21.05;9.15;;;;;;;3.33;49.40;101521.16;5053484;28;20035;-42
2022/01/13 08:37:32;;;;;;;26.13;12.90;;;;;;;3.28;48.77;101522.47;5053539;28;20024;-43
2022/01/13 08:39:58;;;;;;;18.42;9.38;;;;;;;3.44;48.89;101528.25;5052974;28;20082;-42
2022/01/13 08:42:24;;;;;;;18.15;8.15;;;;;;;3.60;48.88;101533.25;5053105;28;20021;-42
2022/01/13 08:44:50;;;;;;;13.40;7.07;;;;;;;3.87;47.19;101546.13;5053269;28;20025;-42
2022/01/13 08:47:16;;;;;;;13.07;7.47;;;;;;;3.04;48.93;101541.69;5053668;28;20052;-42
2022/01/13 08:49:41;;;;;;;13.13;6.43;;;;;;;3.34;48.56;101548.31;5053420;28;20028;-41
2022/01/13 08:52:07;;;;;;;16.52;7.88;;;;;;;3.56;47.98;101542.31;5053295;28;20331;-41
2022/01/13 08:54:32;;;;;;;14.77;7.07;;;;;;;2.88;48.70;101539.31;5053741;28;20052;-41
2022/01/13 08:56:58;;;;;;;12.57;6.82;;;;;;;2.68;48.28;101553.88;5053311;28;20017;-40
2022/01/13 08:59:24;;;;;;;18.77;7.88;;;;;;;2.69;49.27;101539.78;5053090;28;20021;-39
2022/01/13 09:01:49;;;;;;;16.67;7.43;;;;;;;3.40;47.75;101544.41;5052786;28;20082;-39
2022/01/13 09:04:15;;;;;;;13.85;7.80;;;;;;;2.44;49.71;101547.72;5052540;28;20029;-39
2022/01/13 09:06:40;;;;;;;18.30;8.13;;;;;;;2.72;49.18;101555.38;5052693;28;20066;-39
2022/01/13 09:09:06;;;;;;;15.68;7.97;;;;;;;2.72;48.91;101549.25;5053042;28;20110;-39
2022/01/13 09:11:31;;;;;;;17.58;8.23;;;;;;;2.45;50.01;101549.41;5052761;28;20024;-38
2022/01/13 09:13:58;;;;;;;17.92;8.70;;;;;;;2.83;49.61;101548.50;5052975;28;20029;-38
2022/01/13 09:16:29;;;;;;;16.98;8.25;;;;;;;3.00;49.33;101524.44;5053283;28;20032;-38
2022/01/13 09:21:19;;;;;;;15.77;8.52;;;;;;;3.48;48.68;101535.00;5052346;28;20032;-38
2022/01/13 09:23:45;;;;;;;16.10;8.68;;;;;;;3.76;48.62;101532.91;5045440;28;20024;-39
2022/01/13 09:26:10;;;;;;;20.60;8.38;;;;;;;3.70;47.82;101531.59;5046943;28;20119;-39
2022/01/13 09:28:36;;;;;;;20.85;8.85;;;;;;;3.59;48.49;101526.28;5050308;28;20017;-39
2022/01/13 09:31:02;;;;;;;19.02;8.52;;;;;;;3.04;48.50;101523.28;5050907;28;20500;-39
2022/01/13 09:33:27;;;;;;;18.35;8.35;;;;;;;3.32;48.80;101524.72;5052224;28;20028;-39
2022/01/13 09:35:53;;;;;;;15.02;8.25;;;;;;;3.39;49.13;101529.53;5032371;28;20026;-39
2022/01/13 09:38:18;;;;;;;17.85;8.15;;;;;;;3.18;48.99;101521.44;5012894;28;20603;-39
2022/01/13 09:40:47;;;;;;;17.20;8.20;;;;;;;2.87;49.59;101523.66;5052445;28;20040;-38
2022/01/13 09:43:13;;;;;;;20.52;9.15;;;;;;;2.81;50.79;101527.56;5052361;28;20028;-38
2022/01/13 09:45:39;;;;;;;17.08;8.50;;;;;;;2.63;50.92;101518.38;5052218;28;20025;-38
2022/01/13 09:48:04;;;;;;;17.60;9.38;;;;;;;2.90;50.18;101516.38;5052638;28;20048;-38
2022/01/13 09:50:30;;;;;;;15.27;8.40;;;;;;;3.06;49.79;101510.84;5052741;28;20090;-39
2022/01/13 09:52:55;;;;;;;20.80;9.00;;;;;;;3.21;50.31;101501.00;5052275;28;20080;-39
2022/01/13 09:55:21;;;;;;;17.17;9.27;;;;;;;3.07;51.43;101498.56;5052589;28;20032;-37
2022/01/13 09:57:49;;;;;;;18.23;9.05;;;;;;;3.39;49.67;101497.97;5052288;28;20075;-50
2022/01/13 10:00:17;;;;;;;16.15;8.30;;;;;;;2.85;50.74;101488.75;5052152;28;20051;-52
2022/01/13 10:02:43;;;;;;;18.17;9.15;;;;;;;3.03;50.05;101497.94;5049025;28;20023;-52
2022/01/13 10:05:08;;;;;;;16.33;8.45;;;;;;;2.84;51.06;101487.06;5051962;28;20021;-52
2022/01/13 10:07:45;;;;;;;18.85;9.63;;;;;;;3.26;50.50;101488.34;5051372;28;20128;-50
2022/01/13 10:10:15;;;;;;;18.05;9.02;;;;;;;3.01;50.48;101476.16;5050184;28;20021;-52
2022/01/13 10:12:44;;;;;;;17.48;8.75;;;;;;;3.32;50.23;101482.63;5051403;28;20465;-52
2022/01/13 10:17:58;;;;;;;15.82;8.52;;;;;;;3.71;48.87;101471.84;5036468;28;20170;-51
2022/01/13 10:20:24;;;;;;;14.90;8.00;;;;;;;3.09;49.35;101455.38;5051243;28;20036;-52
2022/01/13 10:22:49;;;;;;;16.02;8.10;;;;;;;2.94;51.13;101454.72;5051601;28;20143;-51
2022/01/13 10:25:44;;;;;;;15.13;8.65;;;;;;;3.12;49.96;101457.81;5051170;28;20116;-49
2022/01/13 10:28:12;;;;;;;18.63;8.13;;;;;;;3.29;49.41;101450.44;5041282;28;20098;-52
2022/01/13 10:30:38;;;;;;;16.20;8.15;;;;;;;3.70;48.72;101438.59;5051330;28;20025;-51
2022/01/13 10:33:16;;;;;;;19.67;8.82;;;;;;;3.58;48.56;101448.25;5051026;28;20025;-53
2022/01/13 10:35:42;;;;;;;14.80;7.45;;;;;;;3.37;49.22;101434.06;5049330;28;20017;-51
2022/01/13 10:38:08;;;;;;;15.90;8.02;;;;;;;3.28;49.58;101433.00;5051071;28;20477;-53
2022/01/13 10:40:39;;;;;;;15.63;7.88;;;;;;;3.41;49.26;101424.97;5050531;28;20044;-52
2022/01/13 10:45:42;;;;;;;12.65;6.50;;;;;;;2.72;47.96;101396.75;5050675;28;20474;-51
2022/01/13 10:48:23;;;;;;;14.65;7.63;;;;;;;2.66;48.82;101395.41;5048246;28;20025;-50
2022/01/13 10:50:50;;;;;;;15.68;7.63;;;;;;;3.25;47.12;101396.38;5048275;28;20032;-50
2022/01/13 10:53:36;;;;;;;16.45;7.82;;;;;;;2.98;47.36;101378.22;5050178;28;20021;-53
2022/01/13 10:56:06;;;;;;;14.18;7.07;;;;;;;2.60;48.01;101382.72;5049898;28;20098;-51
2022/01/13 10:58:33;;;;;;;15.85;7.45;;;;;;;2.61;48.67;101386.19;5050196;28;20025;-52
2022/01/13 11:00:59;;;;;;;14.50;8.18;;;;;;;2.99;47.67;101370.22;5050110;28;20086;-50
2022/01/13 11:03:26;;;;;;;15.63;7.90;;;;;;;3.16;46.87;101376.88;5047386;28;20025;-52
2022/01/13 11:06:00;;;;;;;12.90;7.15;;;;;;;3.60;46.26;101372.63;5049953;28;20463;-49
2022/01/13 11:08:38;;;;;;;14.45;7.00;;;;;;;3.40;46.17;101366.25;5050612;28;20060;-50
2022/01/13 11:11:04;;;;;;;12.70;6.95;;;;;;;2.83;46.34;101365.25;5047398;28;20230;-49
2022/01/13 11:13:33;;;;;;;11.23;6.85;;;;;;;3.15;45.03;101369.09;5034448;28;20056;-50
2022/01/13 11:15:58;;;;;;;14.93;7.13;;;;;;;3.21;45.44;101356.28;5050213;28;20035;-50
2022/01/13 11:18:26;;;;;;;15.85;7.20;;;;;;;3.21;46.70;101352.81;5050119;28;20036;-50
2022/01/13 11:20:52;;;;;;;13.25;7.07;;;;;;;3.52;45.13;101341.63;5050284;28;20090;-53
2022/01/13 11:23:18;;;;;;;15.85;7.90;;;;;;;3.82;44.86;101339.34;5050601;28;20384;-52
2022/01/13 11:25:45;;;;;;;13.23;7.32;;;;;;;3.57;45.67;101346.53;5049802;28;20060;-49
2022/01/13 11:28:10;;;;;;;14.88;8.27;;;;;;;3.22;46.41;101330.81;5049685;28;20021;-49
2022/01/13 11:30:37;;;;;;;16.60;8.38;;;;;;;3.53;46.25;101324.88;5048238;28;20511;-49
2022/01/13 11:33:02;;;;;;;14.50;8.05;;;;;;;3.38;46.47;101315.53;5046850;28;20032;-52
2022/01/13 11:35:29;;;;;;;14.30;7.88;;;;;;;3.20;46.50;101320.41;5049785;28;20028;-51
2022/01/13 11:37:56;;;;;;;13.75;7.55;;;;;;;3.32;46.22;101321.28;5048440;28;20376;-52
2022/01/13 11:40:27;;;;;;;12.77;7.60;;;;;;;3.14;46.37;101307.72;5048408;28;20021;-52
2022/01/13 11:42:58;;;;;;;16.33;8.27;;;;;;;3.41;46.64;101315.31;5050050;28;20465;-50
2022/01/13 11:45:23;;;;;;;15.60;7.80;;;;;;;3.66;45.50;101305.50;5050294;28;20082;-51
2022/01/13 11:47:52;;;;;;;14.57;7.30;;;;;;;3.41;46.17;101298.66;5050260;28;20029;-50